sensor_id;sensor_type;location;lat;lon;timestamp;temperature;humidity
2158;DHT22;41972;48.774;9.282;2023-12-28T00:01:16;5.60;99.90
2158;DHT22;41972;48.774;9.282;2023-12-28T00:03:42;5.50;99.90
2158;DHT22;41972;48.774;9.282;2023-12-28T00:06:07;5.40;99.90
2158;DHT22;41972;48.774;9.282;2023-12-28T00:08:33;5.30;99.90
2158;DHT22;41972;48.774;9.282;2023-12-28T00:10:58;5.30;99.90
2158;DHT22;41972;48.774;9.282;2023-12-28T00:13:24;5.30;99.90
2158;DHT22;41972;48.774;9.282;2023-12-28T00:15:49;5.30;99.90
2158;DHT22;41972;48.774;9.282;2023-12-28T00:18:15;5.40;99.90
2158;DHT22;41972;48.774;9.282;2023-12-28T00:20:40;5.40;99.90
2158;DHT22;41972;48.774;9.282;2023-12-28T00:23:08;5.40;99.90
2158;DHT22;41972;48.774;9.282;2023-12-28T00:25:33;5.40;99.90
2158;DHT22;41972;48.774;9.282;2023-12-28T00:27:59;5.40;99.90
2158;DHT22;41972;48.774;9.282;2023-12-28T00:30:24;4.90;99.90
2158;DHT22;41972;48.774;9.282;2023-12-28T00:32:50;5.20;99.90
2158;DHT22;41972;48.774;9.282;2023-12-28T00:35:15;5.40;99.90
2158;DHT22;41972;48.774;9.282;2023-12-28T00:37:41;5.90;99.90
2158;DHT22;41972;48.774;9.282;2023-12-28T00:40:07;6.00;99.90
2158;DHT22;41972;48.774;9.282;2023-12-28T00:42:32;6.20;99.90
2158;DHT22;41972;48.774;9.282;2023-12-28T00:44:58;6.00;99.90
2158;DHT22;41972;48.774;9.282;2023-12-28T00:47:24;5.90;99.90
2158;DHT22;41972;48.774;9.282;2023-12-28T00:49:50;5.80;99.90
2158;DHT22;41972;48.774;9.282;2023-12-28T00:52:16;5.80;99.90
2158;DHT22;41972;48.774;9.282;2023-12-28T00:54:41;5.80;99.90
2158;DHT22;41972;48.774;9.282;2023-12-28T00:57:07;5.90;99.90
2158;DHT22;41972;48.774;9.282;2023-12-28T00:59:32;5.90;99.90
2158;DHT22;41972;48.774;9.282;2023-12-28T01:01:58;5.60;99.90
2158;DHT22;41972;48.774;9.282;2023-12-28T01:04:23;5.60;99.90
2158;DHT22;41972;48.774;9.282;2023-12-28T01:06:49;5.60;99.90
2158;DHT22;41972;48.774;9.282;2023-12-28T01:09:15;5.50;99.90
2158;DHT22;41972;48.774;9.282;2023-12-28T01:11:40;5.30;99.90
2158;DHT22;41972;48.774;9.282;2023-12-28T01:14:06;5.10;99.90
2158;DHT22;41972;48.774;9.282;2023-12-28T01:16:32;5.20;99.90
2158;DHT22;41972;48.774;9.282;2023-12-28T01:18:58;5.20;99.90
2158;DHT22;41972;48.774;9.282;2023-12-28T01:21:23;5.10;99.90
2158;DHT22;41972;48.774;9.282;2023-12-28T01:23:50;5.20;99.90
2158;DHT22;41972;48.774;9.282;2023-12-28T01:26:20;5.30;99.90
2158;DHT22;41972;48.774;9.282;2023-12-28T01:28:46;5.20;99.90
2158;DHT22;41972;48.774;9.282;2023-12-28T01:31:12;5.00;99.90
2158;DHT22;41972;48.774;9.282;2023-12-28T01:33:37;5.00;99.90
2158;DHT22;41972;48.774;9.282;2023-12-28T01:36:15;4.90;99.90
2158;DHT22;41972;48.774;9.282;2023-12-28T01:38:40;4.80;99.90
2158;DHT22;41972;48.774;9.282;2023-12-28T01:41:07;4.70;99.90
2158;DHT22;41972;48.774;9.282;2023-12-28T01:43:32;4.70;99.90
2158;DHT22;41972;48.774;9.282;2023-12-28T01:45:58;4.60;99.90
2158;DHT22;41972;48.774;9.282;2023-12-28T01:48:24;4.60;99.90
2158;DHT22;41972;48.774;9.282;2023-12-28T01:50:49;4.70;99.90
2158;DHT22;41972;48.774;9.282;2023-12-28T01:53:15;4.60;99.90
2158;DHT22;41972;48.774;9.282;2023-12-28T01:55:41;4.60;99.90
2158;DHT22;41972;48.774;9.282;2023-12-28T01:58:07;4.60;99.90
2158;DHT22;41972;48.774;9.282;2023-12-28T02:00:32;4.60;99.90
2158;DHT22;41972;48.774;9.282;2023-12-28T02:03:00;4.50;99.90
2158;DHT22;41972;48.774;9.282;2023-12-28T02:05:27;4.50;99.90
2158;DHT22;41972;48.774;9.282;2023-12-28T02:07:53;4.30;99.90
2158;DHT22;41972;48.774;9.282;2023-12-28T02:10:19;4.30;99.90
2158;DHT22;41972;48.774;9.282;2023-12-28T02:12:44;4.40;99.90
2158;DHT22;41972;48.774;9.282;2023-12-28T02:15:10;4.60;99.90
2158;DHT22;41972;48.774;9.282;2023-12-28T02:17:42;4.70;99.90
2158;DHT22;41972;48.774;9.282;2023-12-28T02:20:09;4.80;99.90
2158;DHT22;41972;48.774;9.282;2023-12-28T02:22:35;4.70;99.90
2158;DHT22;41972;48.774;9.282;2023-12-28T02:25:05;4.70;99.90
2158;DHT22;41972;48.774;9.282;2023-12-28T02:27:47;4.70;99.90
2158;DHT22;41972;48.774;9.282;2023-12-28T02:30:15;4.80;99.90
2158;DHT22;41972;48.774;9.282;2023-12-28T02:37:53;4.70;99.90
2158;DHT22;41972;48.774;9.282;2023-12-28T02:40:21;4.60;99.90
2158;DHT22;41972;48.774;9.282;2023-12-28T02:42:47;4.80;99.90
2158;DHT22;41972;48.774;9.282;2023-12-28T02:45:13;4.80;99.90
2158;DHT22;41972;48.774;9.282;2023-12-28T02:47:38;4.70;99.90
2158;DHT22;41972;48.774;9.282;2023-12-28T02:50:05;4.70;99.90
2158;DHT22;41972;48.774;9.282;2023-12-28T02:52:31;4.60;99.90
2158;DHT22;41972;48.774;9.282;2023-12-28T02:54:56;4.60;99.90
2158;DHT22;41972;48.774;9.282;2023-12-28T02:57:22;4.80;99.90
2158;DHT22;41972;48.774;9.282;2023-12-28T02:59:47;4.90;99.90
2158;DHT22;41972;48.774;9.282;2023-12-28T03:02:13;5.00;99.90
2158;DHT22;41972;48.774;9.282;2023-12-28T03:04:38;4.90;99.90
2158;DHT22;41972;48.774;9.282;2023-12-28T03:07:05;4.90;99.90
2158;DHT22;41972;48.774;9.282;2023-12-28T03:09:30;4.90;99.90
2158;DHT22;41972;48.774;9.282;2023-12-28T03:11:56;4.90;99.90
2158;DHT22;41972;48.774;9.282;2023-12-28T03:14:21;4.90;99.90
2158;DHT22;41972;48.774;9.282;2023-12-28T03:16:47;4.90;99.90
2158;DHT22;41972;48.774;9.282;2023-12-28T03:19:14;5.00;99.90
2158;DHT22;41972;48.774;9.282;2023-12-28T03:21:40;5.00;99.90
2158;DHT22;41972;48.774;9.282;2023-12-28T03:24:05;5.10;99.90
2158;DHT22;41972;48.774;9.282;2023-12-28T03:26:31;5.00;99.90
2158;DHT22;41972;48.774;9.282;2023-12-28T03:28:57;5.00;99.90
2158;DHT22;41972;48.774;9.282;2023-12-28T03:31:22;5.00;99.90
2158;DHT22;41972;48.774;9.282;2023-12-28T03:33:48;4.80;99.90
2158;DHT22;41972;48.774;9.282;2023-12-28T03:36:20;4.90;99.90
2158;DHT22;41972;48.774;9.282;2023-12-28T03:38:46;5.10;99.90
2158;DHT22;41972;48.774;9.282;2023-12-28T03:41:21;5.10;99.90
2158;DHT22;41972;48.774;9.282;2023-12-28T03:43:47;5.00;99.90
2158;DHT22;41972;48.774;9.282;2023-12-28T03:46:14;5.00;99.90
2158;DHT22;41972;48.774;9.282;2023-12-28T03:48:39;5.10;99.90
2158;DHT22;41972;48.774;9.282;2023-12-28T03:51:05;5.10;99.90
2158;DHT22;41972;48.774;9.282;2023-12-28T03:53:31;5.10;99.90
2158;DHT22;41972;48.774;9.282;2023-12-28T03:55:59;4.90;99.90
2158;DHT22;41972;48.774;9.282;2023-12-28T03:58:25;4.90;99.90
2158;DHT22;41972;48.774;9.282;2023-12-28T04:00:50;4.90;99.90
2158;DHT22;41972;48.774;9.282;2023-12-28T04:03:16;5.00;99.90
2158;DHT22;41972;48.774;9.282;2023-12-28T04:05:43;5.10;99.90
2158;DHT22;41972;48.774;9.282;2023-12-28T04:08:09;5.10;99.90
2158;DHT22;41972;48.774;9.282;2023-12-28T04:10:34;5.20;99.90
2158;DHT22;41972;48.774;9.282;2023-12-28T04:13:02;5.30;99.90
2158;DHT22;41972;48.774;9.282;2023-12-28T04:15:28;5.20;99.90
2158;DHT22;41972;48.774;9.282;2023-12-28T04:17:56;5.20;99.90
2158;DHT22;41972;48.774;9.282;2023-12-28T04:20:22;5.10;99.90
2158;DHT22;41972;48.774;9.282;2023-12-28T04:22:48;5.00;99.90
2158;DHT22;41972;48.774;9.282;2023-12-28T04:25:13;5.40;99.90
2158;DHT22;41972;48.774;9.282;2023-12-28T04:27:41;5.40;99.90
2158;DHT22;41972;48.774;9.282;2023-12-28T04:30:07;5.60;99.90
2158;DHT22;41972;48.774;9.282;2023-12-28T04:32:36;5.50;99.90
2158;DHT22;41972;48.774;9.282;2023-12-28T04:35:02;5.60;99.90
2158;DHT22;41972;48.774;9.282;2023-12-28T04:37:29;5.50;99.90
2158;DHT22;41972;48.774;9.282;2023-12-28T04:39:56;5.70;99.90
2158;DHT22;41972;48.774;9.282;2023-12-28T04:42:22;5.60;99.90
2158;DHT22;41972;48.774;9.282;2023-12-28T04:44:47;5.60;99.90
2158;DHT22;41972;48.774;9.282;2023-12-28T04:47:13;5.80;99.90
2158;DHT22;41972;48.774;9.282;2023-12-28T04:49:39;6.00;99.90
2158;DHT22;41972;48.774;9.282;2023-12-28T04:52:05;6.20;99.90
2158;DHT22;41972;48.774;9.282;2023-12-28T04:54:31;6.30;99.90
2158;DHT22;41972;48.774;9.282;2023-12-28T04:56:58;6.50;99.90
2158;DHT22;41972;48.774;9.282;2023-12-28T04:59:23;6.70;99.90
2158;DHT22;41972;48.774;9.282;2023-12-28T05:01:49;6.90;99.90
2158;DHT22;41972;48.774;9.282;2023-12-28T05:04:15;7.00;99.90
2158;DHT22;41972;48.774;9.282;2023-12-28T05:06:40;7.10;99.90
2158;DHT22;41972;48.774;9.282;2023-12-28T05:09:06;7.00;99.90
2158;DHT22;41972;48.774;9.282;2023-12-28T05:11:31;7.10;99.90
2158;DHT22;41972;48.774;9.282;2023-12-28T05:13:57;7.10;99.90
2158;DHT22;41972;48.774;9.282;2023-12-28T05:16:22;7.10;99.90
2158;DHT22;41972;48.774;9.282;2023-12-28T05:18:48;7.10;99.90
2158;DHT22;41972;48.774;9.282;2023-12-28T05:21:13;7.40;99.90
2158;DHT22;41972;48.774;9.282;2023-12-28T05:23:40;7.30;99.90
2158;DHT22;41972;48.774;9.282;2023-12-28T05:26:06;7.20;99.90
2158;DHT22;41972;48.774;9.282;2023-12-28T05:28:31;7.60;99.90
2158;DHT22;41972;48.774;9.282;2023-12-28T05:30:57;7.50;99.90
2158;DHT22;41972;48.774;9.282;2023-12-28T05:33:25;7.50;99.90
2158;DHT22;41972;48.774;9.282;2023-12-28T05:35:50;7.50;99.90
2158;DHT22;41972;48.774;9.282;2023-12-28T05:38:16;7.60;99.90
2158;DHT22;41972;48.774;9.282;2023-12-28T05:40:41;7.70;99.90
2158;DHT22;41972;48.774;9.282;2023-12-28T05:43:08;8.10;99.90
2158;DHT22;41972;48.774;9.282;2023-12-28T05:45:33;8.20;99.90
2158;DHT22;41972;48.774;9.282;2023-12-28T05:47:59;9.00;99.90
2158;DHT22;41972;48.774;9.282;2023-12-28T05:50:24;8.80;99.90
2158;DHT22;41972;48.774;9.282;2023-12-28T05:52:50;8.70;99.90
2158;DHT22;41972;48.774;9.282;2023-12-28T05:55:15;9.00;99.90
2158;DHT22;41972;48.774;9.282;2023-12-28T05:57:41;9.00;99.90
2158;DHT22;41972;48.774;9.282;2023-12-28T06:00:07;9.10;99.90
2158;DHT22;41972;48.774;9.282;2023-12-28T06:02:35;8.80;99.90
2158;DHT22;41972;48.774;9.282;2023-12-28T06:05:01;8.70;99.90
2158;DHT22;41972;48.774;9.282;2023-12-28T06:07:26;8.60;99.90
2158;DHT22;41972;48.774;9.282;2023-12-28T06:09:52;8.80;99.90
2158;DHT22;41972;48.774;9.282;2023-12-28T06:12:17;8.70;99.90
2158;DHT22;41972;48.774;9.282;2023-12-28T06:14:43;8.80;99.90
2158;DHT22;41972;48.774;9.282;2023-12-28T06:17:09;8.60;99.90
2158;DHT22;41972;48.774;9.282;2023-12-28T06:19:34;8.50;99.90
2158;DHT22;41972;48.774;9.282;2023-12-28T06:22:00;8.60;99.90
2158;DHT22;41972;48.774;9.282;2023-12-28T06:24:26;8.50;99.90
2158;DHT22;41972;48.774;9.282;2023-12-28T06:26:52;8.50;99.90
2158;DHT22;41972;48.774;9.282;2023-12-28T06:29:17;8.60;99.90
2158;DHT22;41972;48.774;9.282;2023-12-28T06:31:43;8.70;99.90
2158;DHT22;41972;48.774;9.282;2023-12-28T06:34:08;8.70;99.90
2158;DHT22;41972;48.774;9.282;2023-12-28T06:36:34;8.70;99.90
2158;DHT22;41972;48.774;9.282;2023-12-28T06:39:00;8.80;99.90
2158;DHT22;41972;48.774;9.282;2023-12-28T06:41:26;8.70;99.90
2158;DHT22;41972;48.774;9.282;2023-12-28T06:43:52;8.60;99.90
2158;DHT22;41972;48.774;9.282;2023-12-28T06:46:18;8.40;99.90
2158;DHT22;41972;48.774;9.282;2023-12-28T06:48:44;8.40;99.90
2158;DHT22;41972;48.774;9.282;2023-12-28T06:51:11;8.60;99.90
2158;DHT22;41972;48.774;9.282;2023-12-28T06:53:41;8.80;99.90
2158;DHT22;41972;48.774;9.282;2023-12-28T06:56:06;8.90;99.90
2158;DHT22;41972;48.774;9.282;2023-12-28T06:58:32;8.90;99.90
2158;DHT22;41972;48.774;9.282;2023-12-28T07:00:57;9.00;99.90
2158;DHT22;41972;48.774;9.282;2023-12-28T07:03:23;9.10;99.90
2158;DHT22;41972;48.774;9.282;2023-12-28T07:05:50;9.00;99.90
2158;DHT22;41972;48.774;9.282;2023-12-28T07:08:16;8.90;99.90
2158;DHT22;41972;48.774;9.282;2023-12-28T07:10:42;9.00;99.90
2158;DHT22;41972;48.774;9.282;2023-12-28T07:13:07;8.90;99.90
2158;DHT22;41972;48.774;9.282;2023-12-28T07:15:34;8.70;99.90
2158;DHT22;41972;48.774;9.282;2023-12-28T07:17:59;8.90;99.90
2158;DHT22;41972;48.774;9.282;2023-12-28T07:20:25;9.00;99.90
2158;DHT22;41972;48.774;9.282;2023-12-28T07:22:50;9.50;99.90
2158;DHT22;41972;48.774;9.282;2023-12-28T07:25:16;9.10;99.90
2158;DHT22;41972;48.774;9.282;2023-12-28T07:27:41;9.00;99.90
2158;DHT22;41972;48.774;9.282;2023-12-28T07:30:07;9.10;99.90
2158;DHT22;41972;48.774;9.282;2023-12-28T07:32:33;9.30;99.90
2158;DHT22;41972;48.774;9.282;2023-12-28T07:34:59;9.10;99.90
2158;DHT22;41972;48.774;9.282;2023-12-28T07:37:25;8.80;99.90
2158;DHT22;41972;48.774;9.282;2023-12-28T07:39:51;8.80;99.90
2158;DHT22;41972;48.774;9.282;2023-12-28T07:42:16;8.90;99.90
2158;DHT22;41972;48.774;9.282;2023-12-28T07:44:42;8.90;99.90
2158;DHT22;41972;48.774;9.282;2023-12-28T07:47:08;9.10;99.90
2158;DHT22;41972;48.774;9.282;2023-12-28T07:49:33;8.70;99.90
2158;DHT22;41972;48.774;9.282;2023-12-28T07:51:59;8.70;99.90
2158;DHT22;41972;48.774;9.282;2023-12-28T07:54:24;8.80;99.90
2158;DHT22;41972;48.774;9.282;2023-12-28T07:56:50;8.90;99.90
2158;DHT22;41972;48.774;9.282;2023-12-28T07:59:15;9.00;99.90
2158;DHT22;41972;48.774;9.282;2023-12-28T08:01:41;9.20;99.90
2158;DHT22;41972;48.774;9.282;2023-12-28T08:04:06;9.10;99.90
2158;DHT22;41972;48.774;9.282;2023-12-28T08:06:32;8.80;99.90
2158;DHT22;41972;48.774;9.282;2023-12-28T08:08:59;9.20;99.90
2158;DHT22;41972;48.774;9.282;2023-12-28T08:11:27;9.20;99.90
2158;DHT22;41972;48.774;9.282;2023-12-28T08:13:53;9.20;99.90
2158;DHT22;41972;48.774;9.282;2023-12-28T08:16:19;9.20;99.90
2158;DHT22;41972;48.774;9.282;2023-12-28T08:18:45;9.10;99.90
2158;DHT22;41972;48.774;9.282;2023-12-28T08:21:10;9.40;99.90
2158;DHT22;41972;48.774;9.282;2023-12-28T08:23:36;9.50;99.90
2158;DHT22;41972;48.774;9.282;2023-12-28T08:26:01;11.30;99.90
2158;DHT22;41972;48.774;9.282;2023-12-28T08:28:28;9.60;99.90
2158;DHT22;41972;48.774;9.282;2023-12-28T08:30:55;9.60;99.90
2158;DHT22;41972;48.774;9.282;2023-12-28T08:33:21;9.70;99.90
2158;DHT22;41972;48.774;9.282;2023-12-28T08:40:38;9.60;99.90
2158;DHT22;41972;48.774;9.282;2023-12-28T08:43:04;9.50;99.90
2158;DHT22;41972;48.774;9.282;2023-12-28T08:45:29;8.70;99.90
2158;DHT22;41972;48.774;9.282;2023-12-28T08:47:55;8.50;99.90
2158;DHT22;41972;48.774;9.282;2023-12-28T08:50:21;8.60;99.90
2158;DHT22;41972;48.774;9.282;2023-12-28T08:52:47;8.80;99.90
2158;DHT22;41972;48.774;9.282;2023-12-28T08:55:13;8.80;99.90
2158;DHT22;41972;48.774;9.282;2023-12-28T08:57:38;8.90;99.90
2158;DHT22;41972;48.774;9.282;2023-12-28T09:00:06;9.20;99.90
2158;DHT22;41972;48.774;9.282;2023-12-28T09:02:31;9.40;99.90
2158;DHT22;41972;48.774;9.282;2023-12-28T09:04:58;9.50;99.90
2158;DHT22;41972;48.774;9.282;2023-12-28T09:07:24;9.50;99.90
2158;DHT22;41972;48.774;9.282;2023-12-28T09:09:49;9.40;99.90
2158;DHT22;41972;48.774;9.282;2023-12-28T09:12:15;8.90;99.90
2158;DHT22;41972;48.774;9.282;2023-12-28T09:14:41;8.90;99.90
2158;DHT22;41972;48.774;9.282;2023-12-28T09:17:06;9.10;99.90
2158;DHT22;41972;48.774;9.282;2023-12-28T09:19:32;9.30;99.90
2158;DHT22;41972;48.774;9.282;2023-12-28T09:21:57;9.30;99.90
2158;DHT22;41972;48.774;9.282;2023-12-28T09:24:23;9.40;99.90
2158;DHT22;41972;48.774;9.282;2023-12-28T09:26:48;9.40;99.90
2158;DHT22;41972;48.774;9.282;2023-12-28T09:29:14;9.50;99.90
2158;DHT22;41972;48.774;9.282;2023-12-28T09:31:40;9.70;99.90
2158;DHT22;41972;48.774;9.282;2023-12-28T09:34:05;9.90;99.90
2158;DHT22;41972;48.774;9.282;2023-12-28T09:36:32;9.90;99.90
2158;DHT22;41972;48.774;9.282;2023-12-28T09:38:57;9.80;99.90
2158;DHT22;41972;48.774;9.282;2023-12-28T09:41:26;10.00;99.90
2158;DHT22;41972;48.774;9.282;2023-12-28T09:44:11;10.10;99.90
2158;DHT22;41972;48.774;9.282;2023-12-28T09:46:36;10.30;99.90
2158;DHT22;41972;48.774;9.282;2023-12-28T09:49:04;10.90;99.90
2158;DHT22;41972;48.774;9.282;2023-12-28T09:51:30;10.60;99.90
2158;DHT22;41972;48.774;9.282;2023-12-28T09:53:56;10.80;99.90
2158;DHT22;41972;48.774;9.282;2023-12-28T09:56:22;10.80;99.90
2158;DHT22;41972;48.774;9.282;2023-12-28T09:58:49;11.10;99.90
2158;DHT22;41972;48.774;9.282;2023-12-28T10:01:17;11.10;99.90
2158;DHT22;41972;48.774;9.282;2023-12-28T10:03:43;11.30;99.90
2158;DHT22;41972;48.774;9.282;2023-12-28T10:06:10;11.30;99.90
2158;DHT22;41972;48.774;9.282;2023-12-28T10:08:35;11.30;99.90
2158;DHT22;41972;48.774;9.282;2023-12-28T10:11:02;11.50;99.90
2158;DHT22;41972;48.774;9.282;2023-12-28T10:13:28;11.70;99.90
2158;DHT22;41972;48.774;9.282;2023-12-28T10:15:57;11.50;99.90
2158;DHT22;41972;48.774;9.282;2023-12-28T10:18:23;11.40;99.90
2158;DHT22;41972;48.774;9.282;2023-12-28T10:20:52;11.10;99.90
2158;DHT22;41972;48.774;9.282;2023-12-28T10:23:19;10.90;99.90
2158;DHT22;41972;48.774;9.282;2023-12-28T10:25:46;10.80;99.90
2158;DHT22;41972;48.774;9.282;2023-12-28T10:28:12;10.90;99.90
2158;DHT22;41972;48.774;9.282;2023-12-28T10:30:44;10.80;99.90
2158;DHT22;41972;48.774;9.282;2023-12-28T10:33:09;10.90;99.90
2158;DHT22;41972;48.774;9.282;2023-12-28T10:35:35;10.80;99.90
2158;DHT22;41972;48.774;9.282;2023-12-28T10:38:01;10.90;99.90
2158;DHT22;41972;48.774;9.282;2023-12-28T10:40:29;10.80;99.90
2158;DHT22;41972;48.774;9.282;2023-12-28T10:42:58;10.90;99.90
2158;DHT22;41972;48.774;9.282;2023-12-28T10:45:28;11.20;99.90
2158;DHT22;41972;48.774;9.282;2023-12-28T10:48:09;10.60;99.90
2158;DHT22;41972;48.774;9.282;2023-12-28T10:50:41;10.60;99.90
2158;DHT22;41972;48.774;9.282;2023-12-28T10:53:37;10.50;99.90
2158;DHT22;41972;48.774;9.282;2023-12-28T10:56:15;10.60;99.90
2158;DHT22;41972;48.774;9.282;2023-12-28T10:58:49;10.60;99.90
2158;DHT22;41972;48.774;9.282;2023-12-28T11:01:28;10.60;99.90
2158;DHT22;41972;48.774;9.282;2023-12-28T11:06:43;10.80;99.90
2158;DHT22;41972;48.774;9.282;2023-12-28T11:09:10;11.00;99.90
2158;DHT22;41972;48.774;9.282;2023-12-28T11:11:36;11.00;99.90
2158;DHT22;41972;48.774;9.282;2023-12-28T11:14:03;11.10;99.90
2158;DHT22;41972;48.774;9.282;2023-12-28T11:16:30;11.10;99.90
2158;DHT22;41972;48.774;9.282;2023-12-28T11:18:58;11.10;99.90
2158;DHT22;41972;48.774;9.282;2023-12-28T11:21:25;11.30;99.90
2158;DHT22;41972;48.774;9.282;2023-12-28T11:23:51;11.30;99.90
2158;DHT22;41972;48.774;9.282;2023-12-28T11:26:18;11.40;99.90
2158;DHT22;41972;48.774;9.282;2023-12-28T11:28:44;11.60;99.90
2158;DHT22;41972;48.774;9.282;2023-12-28T11:31:10;11.20;99.90
2158;DHT22;41972;48.774;9.282;2023-12-28T11:33:46;11.30;99.90
2158;DHT22;41972;48.774;9.282;2023-12-28T11:36:25;11.30;99.90
2158;DHT22;41972;48.774;9.282;2023-12-28T11:38:53;11.30;99.90
2158;DHT22;41972;48.774;9.282;2023-12-28T11:41:21;11.30;99.90
2158;DHT22;41972;48.774;9.282;2023-12-28T11:43:53;11.30;99.90
2158;DHT22;41972;48.774;9.282;2023-12-28T11:46:21;11.10;99.90
2158;DHT22;41972;48.774;9.282;2023-12-28T11:48:47;11.10;99.90
2158;DHT22;41972;48.774;9.282;2023-12-28T11:51:12;11.20;99.90
2158;DHT22;41972;48.774;9.282;2023-12-28T11:53:38;11.20;99.90
2158;DHT22;41972;48.774;9.282;2023-12-28T11:56:05;11.10;99.90
2158;DHT22;41972;48.774;9.282;2023-12-28T11:58:34;11.20;99.90
2158;DHT22;41972;48.774;9.282;2023-12-28T12:01:01;11.20;99.90
2158;DHT22;41972;48.774;9.282;2023-12-28T12:03:27;11.40;99.90
2158;DHT22;41972;48.774;9.282;2023-12-28T12:05:55;11.50;99.90
2158;DHT22;41972;48.774;9.282;2023-12-28T12:08:22;11.10;99.90
2158;DHT22;41972;48.774;9.282;2023-12-28T12:10:48;11.10;99.90
2158;DHT22;41972;48.774;9.282;2023-12-28T12:13:15;11.10;99.90
2158;DHT22;41972;48.774;9.282;2023-12-28T12:15:41;11.20;99.90
2158;DHT22;41972;48.774;9.282;2023-12-28T12:18:07;11.40;99.90
2158;DHT22;41972;48.774;9.282;2023-12-28T12:20:33;10.90;99.90
2158;DHT22;41972;48.774;9.282;2023-12-28T12:22:59;11.00;99.90
2158;DHT22;41972;48.774;9.282;2023-12-28T12:25:25;10.80;99.90
2158;DHT22;41972;48.774;9.282;2023-12-28T12:27:51;10.70;99.90
2158;DHT22;41972;48.774;9.282;2023-12-28T12:30:19;10.90;99.90
2158;DHT22;41972;48.774;9.282;2023-12-28T12:32:45;11.10;99.90
2158;DHT22;41972;48.774;9.282;2023-12-28T12:35:11;11.20;99.90
2158;DHT22;41972;48.774;9.282;2023-12-28T12:37:37;11.20;99.90
2158;DHT22;41972;48.774;9.282;2023-12-28T12:40:04;11.30;99.90
2158;DHT22;41972;48.774;9.282;2023-12-28T12:42:31;11.30;99.90
2158;DHT22;41972;48.774;9.282;2023-12-28T12:44:57;11.20;99.90
2158;DHT22;41972;48.774;9.282;2023-12-28T12:47:23;11.20;99.90
2158;DHT22;41972;48.774;9.282;2023-12-28T12:49:51;10.90;99.90
2158;DHT22;41972;48.774;9.282;2023-12-28T12:52:16;10.50;99.90
2158;DHT22;41972;48.774;9.282;2023-12-28T12:54:42;10.50;99.90
2158;DHT22;41972;48.774;9.282;2023-12-28T12:57:08;11.80;99.90
2158;DHT22;41972;48.774;9.282;2023-12-28T12:59:34;10.60;99.90
2158;DHT22;41972;48.774;9.282;2023-12-28T13:02:00;10.60;99.90
2158;DHT22;41972;48.774;9.282;2023-12-28T13:04:26;10.90;99.90
2158;DHT22;41972;48.774;9.282;2023-12-28T13:06:52;10.70;99.90
2158;DHT22;41972;48.774;9.282;2023-12-28T13:09:17;10.80;99.90
2158;DHT22;41972;48.774;9.282;2023-12-28T13:11:43;11.80;99.90
2158;DHT22;41972;48.774;9.282;2023-12-28T13:14:09;10.90;99.90
2158;DHT22;41972;48.774;9.282;2023-12-28T13:16:34;10.60;99.90
2158;DHT22;41972;48.774;9.282;2023-12-28T13:19:00;10.80;99.90
2158;DHT22;41972;48.774;9.282;2023-12-28T13:21:26;11.00;99.90
2158;DHT22;41972;48.774;9.282;2023-12-28T13:23:51;11.10;99.90
2158;DHT22;41972;48.774;9.282;2023-12-28T13:26:17;11.10;99.90
2158;DHT22;41972;48.774;9.282;2023-12-28T13:28:42;11.10;99.90
2158;DHT22;41972;48.774;9.282;2023-12-28T13:31:08;10.90;99.90
2158;DHT22;41972;48.774;9.282;2023-12-28T13:33:33;10.90;99.90
2158;DHT22;41972;48.774;9.282;2023-12-28T13:35:59;11.00;99.90
2158;DHT22;41972;48.774;9.282;2023-12-28T13:38:25;11.00;99.90
2158;DHT22;41972;48.774;9.282;2023-12-28T13:40:50;11.00;99.90
2158;DHT22;41972;48.774;9.282;2023-12-28T13:43:17;11.10;99.90
2158;DHT22;41972;48.774;9.282;2023-12-28T13:45:42;11.50;99.90
2158;DHT22;41972;48.774;9.282;2023-12-28T13:48:08;11.30;99.90
2158;DHT22;41972;48.774;9.282;2023-12-28T13:50:34;11.10;99.90
2158;DHT22;41972;48.774;9.282;2023-12-28T13:53:00;10.90;99.90
2158;DHT22;41972;48.774;9.282;2023-12-28T13:55:25;10.90;99.90
2158;DHT22;41972;48.774;9.282;2023-12-28T13:57:53;10.90;99.90
2158;DHT22;41972;48.774;9.282;2023-12-28T14:00:18;10.80;99.90
2158;DHT22;41972;48.774;9.282;2023-12-28T14:02:45;10.90;99.90
2158;DHT22;41972;48.774;9.282;2023-12-28T14:05:10;11.10;99.90
2158;DHT22;41972;48.774;9.282;2023-12-28T14:07:36;10.80;99.90
2158;DHT22;41972;48.774;9.282;2023-12-28T14:10:03;10.90;99.90
2158;DHT22;41972;48.774;9.282;2023-12-28T14:12:28;10.80;99.90
2158;DHT22;41972;48.774;9.282;2023-12-28T14:14:54;10.70;99.90
2158;DHT22;41972;48.774;9.282;2023-12-28T14:17:19;10.60;99.90
2158;DHT22;41972;48.774;9.282;2023-12-28T14:19:46;10.50;99.90
2158;DHT22;41972;48.774;9.282;2023-12-28T14:22:12;10.60;99.90
2158;DHT22;41972;48.774;9.282;2023-12-28T14:24:38;10.50;99.90
2158;DHT22;41972;48.774;9.282;2023-12-28T14:27:04;10.50;99.90
2158;DHT22;41972;48.774;9.282;2023-12-28T14:29:30;10.40;99.90
2158;DHT22;41972;48.774;9.282;2023-12-28T14:31:56;10.50;99.90
2158;DHT22;41972;48.774;9.282;2023-12-28T14:34:22;10.60;99.90
2158;DHT22;41972;48.774;9.282;2023-12-28T14:36:50;10.60;99.90
2158;DHT22;41972;48.774;9.282;2023-12-28T14:39:17;10.70;99.90
2158;DHT22;41972;48.774;9.282;2023-12-28T14:41:44;10.50;99.90
2158;DHT22;41972;48.774;9.282;2023-12-28T14:44:11;10.30;99.90
2158;DHT22;41972;48.774;9.282;2023-12-28T14:46:37;10.20;99.90
2158;DHT22;41972;48.774;9.282;2023-12-28T14:49:02;10.10;99.90
2158;DHT22;41972;48.774;9.282;2023-12-28T14:51:28;10.60;99.90
2158;DHT22;41972;48.774;9.282;2023-12-28T14:53:55;10.10;99.90
2158;DHT22;41972;48.774;9.282;2023-12-28T14:56:21;10.50;99.90
2158;DHT22;41972;48.774;9.282;2023-12-28T14:58:46;10.20;99.90
2158;DHT22;41972;48.774;9.282;2023-12-28T15:01:17;10.20;99.90
2158;DHT22;41972;48.774;9.282;2023-12-28T15:03:43;10.20;99.90
2158;DHT22;41972;48.774;9.282;2023-12-28T15:06:09;10.00;99.90
2158;DHT22;41972;48.774;9.282;2023-12-28T15:08:35;10.10;99.90
2158;DHT22;41972;48.774;9.282;2023-12-28T15:11:02;10.00;99.90
2158;DHT22;41972;48.774;9.282;2023-12-28T15:13:27;9.90;99.90
2158;DHT22;41972;48.774;9.282;2023-12-28T15:15:53;10.00;99.90
2158;DHT22;41972;48.774;9.282;2023-12-28T15:18:19;9.80;99.90
2158;DHT22;41972;48.774;9.282;2023-12-28T15:20:48;9.80;99.90
2158;DHT22;41972;48.774;9.282;2023-12-28T15:23:14;9.80;99.90
2158;DHT22;41972;48.774;9.282;2023-12-28T15:25:42;9.80;99.90
2158;DHT22;41972;48.774;9.282;2023-12-28T15:28:07;9.90;99.90
2158;DHT22;41972;48.774;9.282;2023-12-28T15:30:33;10.00;99.90
2158;DHT22;41972;48.774;9.282;2023-12-28T15:32:58;10.00;99.90
2158;DHT22;41972;48.774;9.282;2023-12-28T15:35:24;10.00;99.90
2158;DHT22;41972;48.774;9.282;2023-12-28T15:37:49;11.30;99.90
2158;DHT22;41972;48.774;9.282;2023-12-28T15:40:18;10.00;99.90
2158;DHT22;41972;48.774;9.282;2023-12-28T15:42:43;10.00;99.90
2158;DHT22;41972;48.774;9.282;2023-12-28T15:52:28;10.00;99.90
2158;DHT22;41972;48.774;9.282;2023-12-28T15:54:54;10.00;99.90
2158;DHT22;41972;48.774;9.282;2023-12-28T15:57:20;10.00;99.90
2158;DHT22;41972;48.774;9.282;2023-12-28T15:59:45;9.90;99.90
2158;DHT22;41972;48.774;9.282;2023-12-28T16:07:03;10.00;99.90
2158;DHT22;41972;48.774;9.282;2023-12-28T16:16:48;9.80;99.90
2158;DHT22;41972;48.774;9.282;2023-12-28T16:19:14;9.70;99.90
2158;DHT22;41972;48.774;9.282;2023-12-28T16:21:40;9.70;99.90